CFG9YP EDDM-LIRF
Flight info
| Callsign | CFG9YP |
|---|---|
| Flight time | 1h 29m |
| Altitude | 35000 |
| Route | TURBU6E/08R TURBU Y107 TOBSO DCT BAKOR DCT VESAL DCT LAMPO DCT ROKIB DCT VIC DCT KOPER DCT SUKOM DCT BAGNO DCT GAVRA DCT RITEB |
| Aircraft | A321/M-SDE3FGHIRWY/LB1 |
Departure
| Time | 2026-05-01 08:28 |
|---|---|
| Airport | Munich Airport (EDDM) |
Arrival
| Time | 2026-05-01 09:58 |
|---|---|
| Airport | Rome–Fiumicino Leonardo da Vinci International Airport (LIRF) |
| Time | Latitude | Longitude | Altitude | Speed | Heading |
|---|---|---|---|---|---|
| 2026-05-01 07:50 | 48.34996 | 11.78362 | 1473 ft | 0 kts | 83° |
| 2026-05-01 08:13 | 48.34994 | 11.78324 | 1483 ft | 4 kts | 83° |
| 2026-05-01 08:14 | 48.34990 | 11.78284 | 1478 ft | 4 kts | 83° |
| 2026-05-01 08:14 | 48.34987 | 11.78245 | 1476 ft | 4 kts | 72° |
| 2026-05-01 08:14 | 48.34973 | 11.78216 | 1473 ft | 4 kts | 27° |
| 2026-05-01 08:14 | 48.34949 | 11.78205 | 1474 ft | 4 kts | 359° |
| 2026-05-01 08:15 | 48.34928 | 11.78207 | 1473 ft | 4 kts | 353° |
| 2026-05-01 08:15 | 48.34924 | 11.78208 | 1472 ft | 0 kts | 353° |
| 2026-05-01 08:17 | 48.34927 | 11.78208 | 1474 ft | 2 kts | 353° |
| 2026-05-01 08:17 | 48.34950 | 11.78203 | 1473 ft | 3 kts | 353° |
| 2026-05-01 08:17 | 48.34979 | 11.78198 | 1477 ft | 6 kts | 353° |
| 2026-05-01 08:17 | 48.35038 | 11.78188 | 1475 ft | 8 kts | 353° |
| 2026-05-01 08:18 | 48.35088 | 11.78179 | 1479 ft | 7 kts | 353° |
| 2026-05-01 08:18 | 48.35190 | 11.78139 | 1475 ft | 9 kts | 304° |
| 2026-05-01 08:19 | 48.35190 | 11.77949 | 1485 ft | 9 kts | 270° |
| 2026-05-01 08:19 | 48.35174 | 11.77861 | 1479 ft | 11 kts | 235° |
| 2026-05-01 08:19 | 48.35109 | 11.77827 | 1481 ft | 10 kts | 176° |
| 2026-05-01 08:19 | 48.35045 | 11.77835 | 1483 ft | 9 kts | 174° |
| 2026-05-01 08:20 | 48.34988 | 11.77843 | 1478 ft | 8 kts | 173° |
| 2026-05-01 08:20 | 48.34933 | 11.77855 | 1485 ft | 9 kts | 172° |
| 2026-05-01 08:20 | 48.34865 | 11.77869 | 1476 ft | 12 kts | 173° |
| 2026-05-01 08:20 | 48.34772 | 11.77882 | 1485 ft | 13 kts | 174° |
| 2026-05-01 08:21 | 48.34685 | 11.77892 | 1473 ft | 10 kts | 191° |
| 2026-05-01 08:21 | 48.34659 | 11.77814 | 1485 ft | 8 kts | 271° |
| 2026-05-01 08:21 | 48.34649 | 11.77706 | 1479 ft | 15 kts | 262° |
| 2026-05-01 08:21 | 48.34633 | 11.77508 | 1485 ft | 23 kts | 263° |
| 2026-05-01 08:22 | 48.34612 | 11.77237 | 1480 ft | 27 kts | 263° |
| 2026-05-01 08:22 | 48.34594 | 11.76960 | 1475 ft | 26 kts | 265° |
| 2026-05-01 08:22 | 48.34572 | 11.76702 | 1485 ft | 24 kts | 263° |
| 2026-05-01 08:22 | 48.34552 | 11.76459 | 1478 ft | 23 kts | 264° |
| 2026-05-01 08:23 | 48.34535 | 11.76231 | 1479 ft | 21 kts | 263° |
| 2026-05-01 08:23 | 48.34518 | 11.76019 | 1482 ft | 20 kts | 263° |
| 2026-05-01 08:23 | 48.34503 | 11.75823 | 1485 ft | 18 kts | 263° |
| 2026-05-01 08:23 | 48.34487 | 11.75619 | 1480 ft | 22 kts | 264° |
| 2026-05-01 08:24 | 48.34472 | 11.75401 | 1485 ft | 20 kts | 263° |
| 2026-05-01 08:24 | 48.34456 | 11.75242 | 1485 ft | 10 kts | 246° |
| 2026-05-01 08:24 | 48.34398 | 11.75218 | 1485 ft | 9 kts | 172° |
| 2026-05-01 08:24 | 48.34341 | 11.75229 | 1478 ft | 9 kts | 174° |
| 2026-05-01 08:25 | 48.34283 | 11.75239 | 1485 ft | 8 kts | 172° |
| 2026-05-01 08:25 | 48.34232 | 11.75249 | 1481 ft | 7 kts | 173° |
| 2026-05-01 08:25 | 48.34194 | 11.75255 | 1482 ft | 2 kts | 174° |
| 2026-05-01 08:25 | 48.34190 | 11.75256 | 1480 ft | 3 kts | 174° |
| 2026-05-01 08:26 | 48.34146 | 11.75263 | 1476 ft | 7 kts | 174° |
| 2026-05-01 08:26 | 48.34097 | 11.75272 | 1481 ft | 6 kts | 170° |
| 2026-05-01 08:26 | 48.34084 | 11.75315 | 1481 ft | 4 kts | 77° |
| 2026-05-01 08:26 | 48.34086 | 11.75335 | 1476 ft | 0 kts | 82° |
| 2026-05-01 08:27 | 48.34088 | 11.75356 | 1485 ft | 9 kts | 82° |
| 2026-05-01 08:27 | 48.34122 | 11.75808 | 1474 ft | 77 kts | 83° |
| 2026-05-01 08:28 | 48.34204 | 11.76891 | 1484 ft | 129 kts | 83° |
| 2026-05-01 08:28 | 48.34325 | 11.78437 | 1560 ft | 162 kts | 84° |
| 2026-05-01 08:28 | 48.34451 | 11.80090 | 2221 ft | 158 kts | 83° |
| 2026-05-01 08:28 | 48.34581 | 11.81761 | 2758 ft | 167 kts | 84° |
| 2026-05-01 08:29 | 48.34718 | 11.83612 | 2904 ft | 191 kts | 85° |
| 2026-05-01 08:29 | 48.34871 | 11.85707 | 3110 ft | 213 kts | 85° |
| 2026-05-01 08:29 | 48.35039 | 11.87999 | 3680 ft | 223 kts | 85° |
| 2026-05-01 08:29 | 48.35213 | 11.90307 | 4606 ft | 223 kts | 85° |
| 2026-05-01 08:30 | 48.35393 | 11.92649 | 5310 ft | 228 kts | 85° |
| 2026-05-01 08:30 | 48.35295 | 11.95026 | 5985 ft | 232 kts | 110° |
| 2026-05-01 08:30 | 48.34357 | 11.97002 | 6657 ft | 239 kts | 138° |
| 2026-05-01 08:30 | 48.33046 | 11.98563 | 7290 ft | 247 kts | 139° |
| 2026-05-01 08:31 | 48.31632 | 12.00219 | 7630 ft | 265 kts | 140° |
| 2026-05-01 08:31 | 48.30161 | 12.01937 | 8282 ft | 271 kts | 139° |
| 2026-05-01 08:31 | 48.28655 | 12.03676 | 8996 ft | 275 kts | 139° |
| 2026-05-01 08:31 | 48.27304 | 12.05697 | 9639 ft | 276 kts | 127° |
| 2026-05-01 08:32 | 48.26108 | 12.07974 | 10361 ft | 279 kts | 124° |
| 2026-05-01 08:32 | 48.24881 | 12.10343 | 10668 ft | 298 kts | 124° |
| 2026-05-01 08:32 | 48.23566 | 12.12884 | 10796 ft | 320 kts | 124° |
| 2026-05-01 08:32 | 48.22105 | 12.15562 | 10918 ft | 343 kts | 132° |
| 2026-05-01 08:33 | 48.20102 | 12.17714 | 11040 ft | 369 kts | 152° |
| 2026-05-01 08:33 | 48.17554 | 12.18712 | 11159 ft | 393 kts | 173° |
| 2026-05-01 08:33 | 48.14771 | 12.18407 | 11446 ft | 409 kts | 191° |
| 2026-05-01 08:33 | 48.12150 | 12.16793 | 11901 ft | 418 kts | 210° |
| 2026-05-01 08:34 | 48.09730 | 12.14342 | 12416 ft | 422 kts | 213° |
| 2026-05-01 08:34 | 48.07311 | 12.11789 | 12948 ft | 426 kts | 214° |
| 2026-05-01 08:34 | 48.04894 | 12.09198 | 13454 ft | 430 kts | 214° |
| 2026-05-01 08:34 | 48.02454 | 12.06572 | 13964 ft | 433 kts | 214° |
| 2026-05-01 08:35 | 47.99993 | 12.03934 | 14424 ft | 437 kts | 214° |
| 2026-05-01 08:35 | 47.97507 | 12.01289 | 14851 ft | 441 kts | 214° |
| 2026-05-01 08:35 | 47.94952 | 11.98713 | 15249 ft | 443 kts | 209° |
| 2026-05-01 08:35 | 47.92172 | 11.96714 | 15614 ft | 444 kts | 199° |
| 2026-05-01 08:36 | 47.89214 | 11.95398 | 16060 ft | 444 kts | 189° |
| 2026-05-01 08:36 | 47.86157 | 11.94793 | 16501 ft | 444 kts | 180° |
| 2026-05-01 08:36 | 47.83064 | 11.94717 | 16948 ft | 445 kts | 177° |
| 2026-05-01 08:36 | 47.79996 | 11.94666 | 17394 ft | 449 kts | 177° |
| 2026-05-01 08:37 | 47.76868 | 11.94610 | 17838 ft | 451 kts | 177° |
| 2026-05-01 08:37 | 47.73715 | 11.94549 | 18277 ft | 454 kts | 177° |
| 2026-05-01 08:37 | 47.70540 | 11.94486 | 18703 ft | 457 kts | 177° |
| 2026-05-01 08:37 | 47.67348 | 11.94424 | 19090 ft | 460 kts | 177° |
| 2026-05-01 08:38 | 47.64136 | 11.94365 | 19493 ft | 463 kts | 176° |
| 2026-05-01 08:38 | 47.60909 | 11.94309 | 19824 ft | 466 kts | 177° |
| 2026-05-01 08:38 | 47.57651 | 11.94254 | 20157 ft | 469 kts | 176° |
| 2026-05-01 08:38 | 47.54382 | 11.94198 | 20499 ft | 472 kts | 177° |
| 2026-05-01 08:39 | 47.51090 | 11.94143 | 20839 ft | 475 kts | 177° |
| 2026-05-01 08:39 | 47.47776 | 11.94087 | 21161 ft | 477 kts | 176° |
| 2026-05-01 08:39 | 47.44445 | 11.94030 | 21503 ft | 480 kts | 177° |
| 2026-05-01 08:39 | 47.41093 | 11.93627 | 21831 ft | 487 kts | 184° |
| 2026-05-01 08:40 | 47.34343 | 11.92267 | 22491 ft | 493 kts | 185° |
| 2026-05-01 08:40 | 47.30939 | 11.91579 | 22799 ft | 495 kts | 184° |
| 2026-05-01 08:40 | 47.27512 | 11.90891 | 23126 ft | 498 kts | 185° |
| 2026-05-01 08:41 | 47.24113 | 11.90212 | 23427 ft | 500 kts | 184° |
| 2026-05-01 08:41 | 47.20651 | 11.89526 | 23758 ft | 503 kts | 185° |
| 2026-05-01 08:41 | 47.17175 | 11.88839 | 24043 ft | 505 kts | 185° |
| 2026-05-01 08:41 | 47.13682 | 11.88148 | 24299 ft | 508 kts | 185° |
| 2026-05-01 08:42 | 47.10173 | 11.87452 | 24624 ft | 508 kts | 185° |
| 2026-05-01 08:42 | 47.06666 | 11.86757 | 25026 ft | 506 kts | 185° |
| 2026-05-01 08:42 | 47.03182 | 11.86068 | 25320 ft | 507 kts | 185° |
| 2026-05-01 08:42 | 46.99690 | 11.85310 | 25676 ft | 507 kts | 187° |
| 2026-05-01 08:43 | 46.96222 | 11.84356 | 26043 ft | 507 kts | 189° |
| 2026-05-01 08:43 | 46.92766 | 11.83241 | 26395 ft | 509 kts | 191° |
| 2026-05-01 08:43 | 46.89324 | 11.82041 | 26727 ft | 509 kts | 191° |
| 2026-05-01 08:43 | 46.85882 | 11.80825 | 27105 ft | 509 kts | 191° |
| 2026-05-01 08:44 | 46.82445 | 11.79640 | 27450 ft | 508 kts | 190° |
| 2026-05-01 08:44 | 46.78993 | 11.78498 | 27805 ft | 507 kts | 190° |
| 2026-05-01 08:44 | 46.75552 | 11.77403 | 28168 ft | 507 kts | 189° |
| 2026-05-01 08:44 | 46.73265 | 11.76690 | 28357 ft | 508 kts | 189° |
| 2026-05-01 08:45 | 46.69802 | 11.75623 | 28715 ft | 509 kts | 189° |
| 2026-05-01 08:45 | 46.65213 | 11.74216 | 29221 ft | 508 kts | 189° |
| 2026-05-01 08:45 | 46.62883 | 11.73500 | 29462 ft | 507 kts | 188° |
| 2026-05-01 08:45 | 46.58269 | 11.72706 | 29941 ft | 503 kts | 179° |
| 2026-05-01 08:46 | 46.54763 | 11.72510 | 30253 ft | 504 kts | 178° |
| 2026-05-01 08:46 | 46.52395 | 11.72382 | 30486 ft | 503 kts | 179° |
| 2026-05-01 08:46 | 46.48940 | 11.72195 | 30789 ft | 503 kts | 178° |
| 2026-05-01 08:46 | 46.45441 | 11.72004 | 31082 ft | 503 kts | 178° |
| 2026-05-01 08:47 | 46.41941 | 11.71812 | 31345 ft | 504 kts | 178° |
| 2026-05-01 08:47 | 46.38434 | 11.71617 | 31640 ft | 504 kts | 179° |
| 2026-05-01 08:47 | 46.34929 | 11.71419 | 31944 ft | 504 kts | 178° |
| 2026-05-01 08:47 | 46.31426 | 11.71225 | 32212 ft | 504 kts | 178° |
| 2026-05-01 08:48 | 46.27913 | 11.71041 | 32485 ft | 505 kts | 178° |
| 2026-05-01 08:48 | 46.24403 | 11.70862 | 32784 ft | 505 kts | 178° |
| 2026-05-01 08:48 | 46.20892 | 11.70682 | 33055 ft | 505 kts | 178° |
| 2026-05-01 08:48 | 46.17378 | 11.70500 | 33310 ft | 504 kts | 179° |
| 2026-05-01 08:49 | 46.13865 | 11.70313 | 33541 ft | 505 kts | 178° |
| 2026-05-01 08:49 | 46.10355 | 11.70125 | 33853 ft | 505 kts | 178° |
| 2026-05-01 08:49 | 46.06839 | 11.69935 | 34089 ft | 506 kts | 178° |
| 2026-05-01 08:49 | 46.03311 | 11.69744 | 34358 ft | 506 kts | 178° |
| 2026-05-01 08:50 | 45.99800 | 11.69551 | 34671 ft | 504 kts | 178° |
| 2026-05-01 08:50 | 45.96334 | 11.69362 | 34949 ft | 503 kts | 178° |
| 2026-05-01 08:50 | 45.92841 | 11.69173 | 35247 ft | 502 kts | 179° |
| 2026-05-01 08:50 | 45.89349 | 11.68987 | 35375 ft | 502 kts | 179° |
| 2026-05-01 08:51 | 45.82353 | 11.68621 | 35401 ft | 503 kts | 179° |
| 2026-05-01 08:51 | 45.75369 | 11.68257 | 35393 ft | 502 kts | 179° |
| 2026-05-01 08:52 | 45.68390 | 11.67884 | 35404 ft | 502 kts | 179° |
| 2026-05-01 08:52 | 45.61410 | 11.67501 | 35408 ft | 502 kts | 179° |
| 2026-05-01 08:53 | 45.54474 | 11.67010 | 35408 ft | 502 kts | 180° |
| 2026-05-01 08:53 | 45.47500 | 11.66458 | 35406 ft | 502 kts | 180° |
| 2026-05-01 08:54 | 45.40516 | 11.65930 | 35409 ft | 502 kts | 180° |
| 2026-05-01 08:54 | 45.33529 | 11.65429 | 35405 ft | 503 kts | 180° |
| 2026-05-01 08:55 | 45.26543 | 11.64940 | 35427 ft | 503 kts | 179° |
| 2026-05-01 08:55 | 45.19551 | 11.64438 | 35401 ft | 504 kts | 179° |
| 2026-05-01 08:56 | 45.12550 | 11.64059 | 35391 ft | 503 kts | 176° |
| 2026-05-01 08:56 | 45.05565 | 11.64333 | 35380 ft | 501 kts | 173° |
| 2026-05-01 08:57 | 44.98594 | 11.64891 | 35370 ft | 501 kts | 173° |
| 2026-05-01 08:57 | 44.91626 | 11.65332 | 35364 ft | 502 kts | 174° |
| 2026-05-01 08:58 | 44.84687 | 11.65630 | 35371 ft | 502 kts | 175° |
| 2026-05-01 08:58 | 44.77704 | 11.65911 | 35372 ft | 502 kts | 175° |
| 2026-05-01 08:59 | 44.70726 | 11.66229 | 35372 ft | 502 kts | 174° |
| 2026-05-01 08:59 | 44.63753 | 11.66575 | 35378 ft | 501 kts | 174° |
| 2026-05-01 09:00 | 44.56767 | 11.66909 | 35374 ft | 501 kts | 174° |
| 2026-05-01 09:00 | 44.49878 | 11.68055 | 35373 ft | 498 kts | 168° |
| 2026-05-01 09:01 | 44.43011 | 11.69444 | 35410 ft | 499 kts | 168° |
| 2026-05-01 09:01 | 44.36129 | 11.70836 | 35377 ft | 500 kts | 168° |
| 2026-05-01 09:02 | 44.29245 | 11.72217 | 35364 ft | 500 kts | 168° |
| 2026-05-01 09:02 | 44.22382 | 11.73580 | 35363 ft | 501 kts | 168° |
| 2026-05-01 09:03 | 44.15483 | 11.74958 | 35362 ft | 501 kts | 168° |
| 2026-05-01 09:03 | 44.08573 | 11.76346 | 35373 ft | 502 kts | 168° |
| 2026-05-01 09:04 | 44.01658 | 11.77718 | 35377 ft | 502 kts | 168° |
| 2026-05-01 09:04 | 43.94744 | 11.79086 | 35386 ft | 503 kts | 168° |
| 2026-05-01 09:05 | 43.87811 | 11.80468 | 35376 ft | 503 kts | 168° |
| 2026-05-01 09:05 | 43.80870 | 11.81849 | 35371 ft | 504 kts | 168° |
| 2026-05-01 09:06 | 43.73937 | 11.83397 | 35362 ft | 504 kts | 165° |
| 2026-05-01 09:06 | 43.67111 | 11.85573 | 35346 ft | 504 kts | 162° |
| 2026-05-01 09:07 | 43.60309 | 11.87967 | 35353 ft | 504 kts | 162° |
| 2026-05-01 09:07 | 43.53477 | 11.90236 | 35357 ft | 506 kts | 163° |
| 2026-05-01 09:08 | 43.46652 | 11.92370 | 35345 ft | 506 kts | 164° |
| 2026-05-01 09:08 | 43.39776 | 11.94501 | 35346 ft | 507 kts | 165° |
| 2026-05-01 09:09 | 43.32901 | 11.96671 | 35335 ft | 507 kts | 164° |
| 2026-05-01 09:09 | 43.26027 | 11.98850 | 35331 ft | 507 kts | 164° |
| 2026-05-01 09:10 | 43.19142 | 12.01025 | 35333 ft | 508 kts | 165° |
| 2026-05-01 09:10 | 43.12251 | 12.03174 | 35335 ft | 508 kts | 166° |
| 2026-05-01 09:11 | 43.05351 | 12.05321 | 35353 ft | 508 kts | 166° |
| 2026-05-01 09:11 | 42.98459 | 12.07484 | 35325 ft | 508 kts | 166° |
| 2026-05-01 09:12 | 42.91566 | 12.09637 | 35312 ft | 508 kts | 166° |
| 2026-05-01 09:12 | 42.84665 | 12.11773 | 35305 ft | 508 kts | 167° |
| 2026-05-01 09:13 | 42.77687 | 12.12737 | 35292 ft | 505 kts | 190° |
| 2026-05-01 09:13 | 42.74303 | 12.11601 | 35283 ft | 498 kts | 205° |
| 2026-05-01 09:13 | 42.71309 | 12.09452 | 35272 ft | 489 kts | 220° |
| 2026-05-01 09:14 | 42.68770 | 12.06370 | 35256 ft | 479 kts | 235° |
| 2026-05-01 09:14 | 42.66894 | 12.02709 | 35208 ft | 468 kts | 249° |
| 2026-05-01 09:14 | 42.64718 | 11.94588 | 35224 ft | 460 kts | 258° |
| 2026-05-01 09:15 | 42.62755 | 11.86307 | 35243 ft | 461 kts | 258° |
| 2026-05-01 09:15 | 42.60766 | 11.78018 | 35254 ft | 461 kts | 258° |
| 2026-05-01 09:16 | 42.58779 | 11.69769 | 35301 ft | 459 kts | 258° |
| 2026-05-01 09:17 | 42.54041 | 11.58531 | 35294 ft | 484 kts | 220° |
| 2026-05-01 09:17 | 42.51038 | 11.56406 | 35284 ft | 494 kts | 200° |
| 2026-05-01 09:17 | 42.44205 | 11.56448 | 35266 ft | 502 kts | 162° |
| 2026-05-01 09:18 | 42.34253 | 11.61090 | 35244 ft | 507 kts | 161° |
| 2026-05-01 09:19 | 42.24363 | 11.65654 | 34933 ft | 493 kts | 162° |
| 2026-05-01 09:19 | 42.21123 | 11.67127 | 34540 ft | 487 kts | 162° |
| 2026-05-01 09:20 | 42.14817 | 11.70004 | 33983 ft | 472 kts | 162° |
| 2026-05-01 09:20 | 42.08617 | 11.72836 | 32579 ft | 476 kts | 162° |
| 2026-05-01 09:21 | 42.02291 | 11.75712 | 31085 ft | 483 kts | 162° |
| 2026-05-01 09:21 | 41.99110 | 11.77158 | 30511 ft | 482 kts | 163° |
| 2026-05-01 09:21 | 41.92797 | 11.80038 | 29361 ft | 475 kts | 162° |
| 2026-05-01 09:22 | 41.86584 | 11.82868 | 28288 ft | 467 kts | 162° |
| 2026-05-01 09:22 | 41.80446 | 11.85637 | 26608 ft | 468 kts | 162° |
| 2026-05-01 09:23 | 41.77364 | 11.87020 | 25538 ft | 459 kts | 163° |
| 2026-05-01 09:23 | 41.71667 | 11.89595 | 24847 ft | 413 kts | 163° |
| 2026-05-01 09:24 | 41.66339 | 11.92002 | 23407 ft | 396 kts | 162° |
| 2026-05-01 09:24 | 41.63753 | 11.93161 | 22575 ft | 389 kts | 162° |
| 2026-05-01 09:24 | 41.58683 | 11.95399 | 20983 ft | 377 kts | 161° |
| 2026-05-01 09:25 | 41.53762 | 11.97545 | 19520 ft | 367 kts | 161° |
| 2026-05-01 09:25 | 41.48972 | 11.99634 | 18079 ft | 357 kts | 160° |
| 2026-05-01 09:26 | 41.46653 | 12.00647 | 17387 ft | 351 kts | 160° |
| 2026-05-01 09:26 | 41.42202 | 12.02940 | 16053 ft | 331 kts | 137° |
| 2026-05-01 09:26 | 41.40778 | 12.05185 | 15460 ft | 308 kts | 107° |
| 2026-05-01 09:27 | 41.40690 | 12.10336 | 14132 ft | 271 kts | 65° |
| 2026-05-01 09:27 | 41.41278 | 12.12720 | 13381 ft | 268 kts | 60° |
| 2026-05-01 09:27 | 41.42258 | 12.14726 | 13152 ft | 251 kts | 41° |
| 2026-05-01 09:28 | 41.43431 | 12.16390 | 12938 ft | 243 kts | 41° |
| 2026-05-01 09:28 | 41.44588 | 12.18022 | 12631 ft | 241 kts | 41° |
| 2026-05-01 09:28 | 41.45740 | 12.19640 | 12271 ft | 240 kts | 41° |
| 2026-05-01 09:28 | 41.46962 | 12.21114 | 11909 ft | 234 kts | 27° |
| 2026-05-01 09:29 | 41.49585 | 12.23901 | 10831 ft | 255 kts | 61° |
| 2026-05-01 09:29 | 41.49917 | 12.26206 | 10706 ft | 254 kts | 83° |
| 2026-05-01 09:30 | 41.51004 | 12.30235 | 10238 ft | 225 kts | 46° |
| 2026-05-01 09:30 | 41.52020 | 12.31834 | 9543 ft | 229 kts | 40° |
| 2026-05-01 09:30 | 41.54805 | 12.33698 | 8797 ft | 217 kts | 22° |
| 2026-05-01 09:31 | 41.56161 | 12.34537 | 8553 ft | 208 kts | 25° |
| 2026-05-01 09:31 | 41.57392 | 12.35367 | 8410 ft | 190 kts | 25° |
| 2026-05-01 09:31 | 41.59975 | 12.36285 | 7191 ft | 202 kts | 357° |
| 2026-05-01 09:32 | 41.61370 | 12.35853 | 6500 ft | 211 kts | 346° |
| 2026-05-01 09:32 | 41.64193 | 12.34663 | 5092 ft | 210 kts | 344° |
| 2026-05-01 09:32 | 41.65583 | 12.34083 | 4328 ft | 208 kts | 344° |
| 2026-05-01 09:33 | 41.66950 | 12.33514 | 3624 ft | 200 kts | 344° |
| 2026-05-01 09:33 | 41.68263 | 12.32968 | 2880 ft | 195 kts | 344° |
| 2026-05-01 09:33 | 41.70611 | 12.31988 | 2225 ft | 157 kts | 346° |
| 2026-05-01 09:34 | 41.71592 | 12.31578 | 2040 ft | 145 kts | 347° |
| 2026-05-01 09:34 | 41.72232 | 12.31313 | 1883 ft | 140 kts | 345° |
| 2026-05-01 09:34 | 41.74097 | 12.30536 | 1520 ft | 139 kts | 347° |
| 2026-05-01 09:35 | 41.75026 | 12.30150 | 1327 ft | 140 kts | 347° |
| 2026-05-01 09:35 | 41.76876 | 12.29378 | 946 ft | 140 kts | 347° |
| 2026-05-01 09:35 | 41.77809 | 12.28994 | 777 ft | 139 kts | 347° |
| 2026-05-01 09:36 | 41.78718 | 12.28609 | 584 ft | 138 kts | 346° |
| 2026-05-01 09:36 | 41.79634 | 12.28218 | 408 ft | 138 kts | 345° |
| 2026-05-01 09:36 | 41.80552 | 12.27835 | 223 ft | 139 kts | 347° |
| 2026-05-01 09:36 | 41.81473 | 12.27456 | 31 ft | 137 kts | 345° |
| 2026-05-01 09:37 | 41.82333 | 12.27115 | 15 ft | 137 kts | 344° |
| 2026-05-01 09:37 | 41.84249 | 12.26322 | 1516 ft | 148 kts | 347° |
| 2026-05-01 09:37 | 41.85303 | 12.25862 | 1745 ft | 170 kts | 347° |
| 2026-05-01 09:38 | 41.87838 | 12.25832 | 2219 ft | 209 kts | 34° |
| 2026-05-01 09:38 | 41.88750 | 12.27335 | 2820 ft | 217 kts | 66° |
| 2026-05-01 09:38 | 41.89123 | 12.29344 | 3608 ft | 224 kts | 88° |
| 2026-05-01 09:39 | 41.87590 | 12.32886 | 3997 ft | 238 kts | 149° |
| 2026-05-01 09:39 | 41.86019 | 12.33636 | 4010 ft | 242 kts | 161° |
| 2026-05-01 09:39 | 41.84410 | 12.34189 | 4011 ft | 241 kts | 163° |
| 2026-05-01 09:40 | 41.82789 | 12.34749 | 4011 ft | 240 kts | 163° |
| 2026-05-01 09:40 | 41.79561 | 12.35886 | 4008 ft | 239 kts | 163° |
| 2026-05-01 09:40 | 41.77938 | 12.36428 | 4010 ft | 240 kts | 163° |
| 2026-05-01 09:41 | 41.76324 | 12.36980 | 4009 ft | 240 kts | 163° |
| 2026-05-01 09:41 | 41.73090 | 12.38109 | 3988 ft | 242 kts | 163° |
| 2026-05-01 09:41 | 41.71473 | 12.38684 | 3984 ft | 244 kts | 163° |
| 2026-05-01 09:42 | 41.69834 | 12.39283 | 3989 ft | 245 kts | 163° |
| 2026-05-01 09:42 | 41.68185 | 12.39889 | 3978 ft | 245 kts | 163° |
| 2026-05-01 09:42 | 41.64895 | 12.41094 | 3984 ft | 240 kts | 165° |
| 2026-05-01 09:43 | 41.61749 | 12.42386 | 3380 ft | 237 kts | 169° |
| 2026-05-01 09:43 | 41.60148 | 12.42121 | 3102 ft | 234 kts | 210° |
| 2026-05-01 09:43 | 41.59093 | 12.40594 | 2918 ft | 220 kts | 250° |
| 2026-05-01 09:44 | 41.59686 | 12.36864 | 2449 ft | 225 kts | 322° |
| 2026-05-01 09:44 | 41.61040 | 12.35946 | 2475 ft | 218 kts | 345° |
| 2026-05-01 09:44 | 41.62489 | 12.35356 | 2479 ft | 217 kts | 345° |
| 2026-05-01 09:45 | 41.63930 | 12.34769 | 2502 ft | 211 kts | 345° |
| 2026-05-01 09:45 | 41.66590 | 12.33664 | 2495 ft | 187 kts | 344° |
| 2026-05-01 09:45 | 41.67761 | 12.33175 | 2478 ft | 166 kts | 345° |
| 2026-05-01 09:46 | 41.68811 | 12.32738 | 2477 ft | 150 kts | 345° |
| 2026-05-01 09:46 | 41.69775 | 12.32337 | 2326 ft | 143 kts | 346° |
| 2026-05-01 09:46 | 41.70679 | 12.31961 | 2163 ft | 140 kts | 346° |
| 2026-05-01 09:46 | 41.71612 | 12.31572 | 2028 ft | 141 kts | 346° |
| 2026-05-01 09:47 | 41.72534 | 12.31188 | 1819 ft | 140 kts | 344° |
| 2026-05-01 09:47 | 41.73465 | 12.30801 | 1643 ft | 139 kts | 346° |
| 2026-05-01 09:47 | 41.74386 | 12.30416 | 1458 ft | 138 kts | 346° |
| 2026-05-01 09:47 | 41.75305 | 12.30033 | 1264 ft | 138 kts | 348° |
| 2026-05-01 09:48 | 41.76227 | 12.29649 | 1078 ft | 139 kts | 349° |
| 2026-05-01 09:48 | 41.77145 | 12.29265 | 890 ft | 138 kts | 347° |
| 2026-05-01 09:48 | 41.78065 | 12.28881 | 704 ft | 138 kts | 346° |
| 2026-05-01 09:48 | 41.78939 | 12.28514 | 534 ft | 127 kts | 346° |
| 2026-05-01 09:49 | 41.79820 | 12.28148 | 368 ft | 136 kts | 346° |
| 2026-05-01 09:49 | 41.80718 | 12.27773 | 196 ft | 136 kts | 346° |
| 2026-05-01 09:49 | 41.81687 | 12.27362 | 305 ft | 158 kts | 343° |
| 2026-05-01 09:49 | 41.82739 | 12.26926 | 1169 ft | 159 kts | 349° |
| 2026-05-01 09:50 | 41.83812 | 12.26480 | 1595 ft | 168 kts | 348° |
| 2026-05-01 09:50 | 41.85002 | 12.26566 | 1710 ft | 183 kts | 26° |
| 2026-05-01 09:50 | 41.85948 | 12.27818 | 1888 ft | 208 kts | 63° |
| 2026-05-01 09:50 | 41.86140 | 12.29800 | 2502 ft | 223 kts | 98° |
| 2026-05-01 09:51 | 41.85446 | 12.31683 | 3232 ft | 232 kts | 131° |
| 2026-05-01 09:51 | 41.84065 | 12.32866 | 3838 ft | 242 kts | 156° |
| 2026-05-01 09:51 | 41.82454 | 12.33528 | 3978 ft | 241 kts | 162° |
| 2026-05-01 09:51 | 41.80845 | 12.34078 | 4006 ft | 240 kts | 163° |
| 2026-05-01 09:52 | 41.79218 | 12.34607 | 4005 ft | 241 kts | 163° |
| 2026-05-01 09:52 | 41.77584 | 12.35127 | 4009 ft | 241 kts | 163° |
| 2026-05-01 09:52 | 41.75953 | 12.35642 | 4011 ft | 240 kts | 163° |
| 2026-05-01 09:52 | 41.74331 | 12.36176 | 3985 ft | 239 kts | 163° |
| 2026-05-01 09:53 | 41.72718 | 12.36732 | 3988 ft | 240 kts | 163° |
| 2026-05-01 09:53 | 41.71065 | 12.37047 | 3855 ft | 239 kts | 185° |
| 2026-05-01 09:53 | 41.69532 | 12.36411 | 3693 ft | 226 kts | 212° |
| 2026-05-01 09:53 | 41.68422 | 12.35036 | 3445 ft | 218 kts | 239° |
| 2026-05-01 09:54 | 41.68132 | 12.33143 | 3130 ft | 206 kts | 286° |
| 2026-05-01 09:54 | 41.68881 | 12.31637 | 2757 ft | 195 kts | 329° |
| 2026-05-01 09:54 | 41.70166 | 12.31358 | 2317 ft | 188 kts | 13° |
| 2026-05-01 09:54 | 41.71365 | 12.31702 | 2082 ft | 164 kts | 0° |
| 2026-05-01 09:55 | 41.72387 | 12.31197 | 1843 ft | 150 kts | 336° |
| 2026-05-01 09:55 | 41.73346 | 12.30797 | 1655 ft | 141 kts | 347° |
| 2026-05-01 09:55 | 41.74284 | 12.30433 | 1477 ft | 138 kts | 347° |
| 2026-05-01 09:55 | 41.75207 | 12.30062 | 1285 ft | 139 kts | 348° |
| 2026-05-01 09:56 | 41.76134 | 12.29681 | 1097 ft | 140 kts | 346° |
| 2026-05-01 09:56 | 41.77061 | 12.29295 | 898 ft | 139 kts | 347° |
| 2026-05-01 09:56 | 41.77991 | 12.28900 | 683 ft | 139 kts | 346° |
| 2026-05-01 09:56 | 41.78888 | 12.28520 | 555 ft | 135 kts | 346° |
| 2026-05-01 09:57 | 41.79795 | 12.28149 | 385 ft | 139 kts | 346° |
| 2026-05-01 09:57 | 41.80713 | 12.27772 | 200 ft | 136 kts | 345° |
| 2026-05-01 09:57 | 41.81608 | 12.27394 | 25 ft | 130 kts | 344° |
| 2026-05-01 09:57 | 41.82369 | 12.27081 | 9 ft | 90 kts | 343° |
| 2026-05-01 09:58 | 41.82795 | 12.26905 | 14 ft | 39 kts | 343° |
| 2026-05-01 09:58 | 41.82966 | 12.26834 | 12 ft | 21 kts | 340° |
| 2026-05-01 09:58 | 41.83082 | 12.26724 | 10 ft | 21 kts | 324° |
| 2026-05-01 09:58 | 41.83183 | 12.26589 | 10 ft | 21 kts | 310° |
| 2026-05-01 09:59 | 41.83242 | 12.26472 | 12 ft | 12 kts | 271° |
| 2026-05-01 09:59 | 41.83188 | 12.26417 | 12 ft | 10 kts | 181° |
| 2026-05-01 09:59 | 41.83116 | 12.26446 | 12 ft | 13 kts | 161° |
| 2026-05-01 09:59 | 41.83033 | 12.26482 | 11 ft | 12 kts | 162° |
| 2026-05-01 10:00 | 41.82957 | 12.26514 | 11 ft | 11 kts | 163° |
| 2026-05-01 10:00 | 41.82889 | 12.26542 | 11 ft | 10 kts | 163° |
| 2026-05-01 10:00 | 41.82827 | 12.26567 | 11 ft | 10 kts | 163° |
| 2026-05-01 10:00 | 41.82744 | 12.26601 | 13 ft | 13 kts | 162° |
| 2026-05-01 10:01 | 41.82664 | 12.26636 | 11 ft | 13 kts | 162° |
| 2026-05-01 10:01 | 41.82512 | 12.26700 | 11 ft | 30 kts | 162° |
| 2026-05-01 10:01 | 41.82307 | 12.26785 | 11 ft | 29 kts | 163° |
| 2026-05-01 10:01 | 41.82116 | 12.26863 | 11 ft | 28 kts | 163° |
| 2026-05-01 10:02 | 41.81932 | 12.26939 | 11 ft | 27 kts | 162° |
| 2026-05-01 10:02 | 41.81761 | 12.27013 | 12 ft | 23 kts | 162° |
| 2026-05-01 10:02 | 41.81616 | 12.27075 | 12 ft | 20 kts | 166° |
| 2026-05-01 10:02 | 41.81490 | 12.27127 | 12 ft | 18 kts | 164° |
| 2026-05-01 10:03 | 41.81380 | 12.27173 | 12 ft | 16 kts | 162° |
| 2026-05-01 10:03 | 41.81280 | 12.27216 | 12 ft | 16 kts | 162° |
| 2026-05-01 10:03 | 41.81164 | 12.27265 | 12 ft | 19 kts | 161° |
| 2026-05-01 10:03 | 41.81041 | 12.27317 | 12 ft | 18 kts | 162° |
| 2026-05-01 10:04 | 41.80928 | 12.27351 | 12 ft | 16 kts | 179° |
| 2026-05-01 10:04 | 41.80828 | 12.27332 | 13 ft | 14 kts | 188° |
| 2026-05-01 10:04 | 41.80730 | 12.27309 | 13 ft | 15 kts | 194° |
| 2026-05-01 10:04 | 41.80657 | 12.27214 | 15 ft | 15 kts | 245° |
| 2026-05-01 10:05 | 41.80617 | 12.27080 | 13 ft | 17 kts | 249° |
| 2026-05-01 10:05 | 41.80573 | 12.26927 | 15 ft | 18 kts | 249° |
| 2026-05-01 10:05 | 41.80533 | 12.26781 | 14 ft | 15 kts | 249° |
| 2026-05-01 10:05 | 41.80500 | 12.26662 | 17 ft | 13 kts | 250° |
| 2026-05-01 10:06 | 41.80465 | 12.26531 | 15 ft | 17 kts | 250° |
| 2026-05-01 10:06 | 41.80420 | 12.26365 | 15 ft | 21 kts | 251° |
| 2026-05-01 10:06 | 41.80371 | 12.26188 | 17 ft | 19 kts | 253° |
| 2026-05-01 10:06 | 41.80324 | 12.26030 | 14 ft | 17 kts | 252° |
| 2026-05-01 10:07 | 41.80286 | 12.25884 | 16 ft | 16 kts | 249° |
| 2026-05-01 10:07 | 41.80250 | 12.25756 | 14 ft | 15 kts | 250° |
| 2026-05-01 10:07 | 41.80213 | 12.25612 | 15 ft | 18 kts | 251° |
| 2026-05-01 10:07 | 41.80171 | 12.25465 | 14 ft | 16 kts | 249° |
| 2026-05-01 10:08 | 41.80105 | 12.25208 | 14 ft | 15 kts | 253° |
| 2026-05-01 10:08 | 41.80102 | 12.25047 | 14 ft | 20 kts | 281° |
| 2026-05-01 10:08 | 41.80103 | 12.24866 | 14 ft | 14 kts | 257° |
| 2026-05-01 10:09 | 41.80045 | 12.24795 | 14 ft | 12 kts | 183° |
| 2026-05-01 10:09 | 41.79962 | 12.24831 | 14 ft | 13 kts | 160° |
| 2026-05-01 10:09 | 41.79891 | 12.24865 | 14 ft | 0 kts | 160° |
| 2026-05-01 10:09 | 41.79867 | 12.24877 | 15 ft | 9 kts | 160° |
| 2026-05-01 10:10 | 41.79818 | 12.24841 | 14 ft | 9 kts | 246° |
| 2026-05-01 10:10 | 41.79811 | 12.24817 | 14 ft | 1 kts | 249° |
| 2026-05-01 10:10 | 41.79808 | 12.24806 | 14 ft | 0 kts | 249° |